Time;durP1;ratioP1;P1;durP2;ratioP2;P2;SDS_P1;SDS_P2;PMS_P1;PMS_P2;Temp;Humidity;BMP_temperature;BMP_pressure;BME280_temperature;BME280_humidity;BME280_pressure;Samples;Min_cycle;Max_cycle;Signal;HPM_P1;HPM_P2
2023/01/12 00:02:02;;;;;;;6.20;2.23;;;;;;;;;;4922022;29;20204;-86
2023/01/12 00:04:34;;;;;;;13.80;4.33;;;;;;;;;;4922020;29;20215;-85
2023/01/12 00:07:03;;;;;;;9.27;3.27;;;;;;;;;;4938568;29;20231;-86
2023/01/12 00:09:31;;;;;;;8.57;3.47;;;;;;;;;;4921624;29;20244;-85
2023/01/12 00:12:00;;;;;;;9.07;3.30;;;;;;;;;;4921623;29;20196;-85
2023/01/12 00:14:28;;;;;;;6.43;3.27;;;;;;;;;;4921334;29;20215;-85
2023/01/12 00:16:56;;;;;;;19.87;5.53;;;;;;;;;;4938607;29;20243;-86
2023/01/12 00:19:26;;;;;;;12.23;4.73;;;;;;;;;;4921899;29;20346;-86
2023/01/12 00:21:58;;;;;;;16.87;5.03;;;;;;;;;;4921309;29;20223;-85
2023/01/12 00:24:27;;;;;;;11.93;2.77;;;;;;;;;;4921738;29;20229;-86
2023/01/12 00:26:56;;;;;;;19.70;4.73;;;;;;;;;;4921363;29;20209;-85
2023/01/12 00:29:25;;;;;;;8.93;4.40;;;;;;;;;;4921127;29;20204;-85
2023/01/12 00:31:54;;;;;;;3.70;2.50;;;;;;;;;;4938368;29;20209;-85
2023/01/12 00:34:23;;;;;;;18.07;5.27;;;;;;;;;;4921095;29;20229;-85
2023/01/12 00:36:52;;;;;;;14.77;4.27;;;;;;;;;;4921382;29;20228;-86
2023/01/12 00:39:21;;;;;;;12.57;3.83;;;;;;;;;;4938221;29;20210;-85
2023/01/12 00:47:22;;;;;;;5.83;3.27;;;;;;;;;;4921077;29;20227;-85
2023/01/12 00:49:51;;;;;;;12.03;4.63;;;;;;;;;;4938076;29;20221;-86
2023/01/12 00:52:21;;;;;;;7.60;2.30;;;;;;;;;;4938109;29;20260;-85
2023/01/12 00:54:58;;;;;;;13.60;2.80;;;;;;;;;;4921020;29;20201;-85
2023/01/12 00:57:28;;;;;;;14.73;2.97;;;;;;;;;;4937616;29;20271;-85
2023/01/12 00:59:57;;;;;;;15.80;4.07;;;;;;;;;;4937791;29;20200;-85
2023/01/12 01:02:26;;;;;;;10.20;3.93;;;;;;;;;;4920534;29;20213;-85
2023/01/12 01:04:55;;;;;;;20.73;5.37;;;;;;;;;;4920458;29;20259;-85
2023/01/12 01:07:25;;;;;;;15.77;5.70;;;;;;;;;;4937326;29;20207;-85
2023/01/12 01:09:53;;;;;;;12.73;4.20;;;;;;;;;;4914006;29;20293;-85
2023/01/12 01:12:57;;;;;;;22.77;7.10;;;;;;;;;;5111602;27;20542;-86
2023/01/12 01:15:25;;;;;;;8.33;2.67;;;;;;;;;;5111725;28;20194;-86
2023/01/12 01:17:53;;;;;;;8.33;3.17;;;;;;;;;;5110945;28;20205;-86
2023/01/12 01:20:22;;;;;;;25.87;5.93;;;;;;;;;;5111570;28;20202;-86
2023/01/12 01:22:50;;;;;;;31.17;6.70;;;;;;;;;;5110881;28;20193;-86
2023/01/12 01:25:18;;;;;;;24.63;5.00;;;;;;;;;;5110395;28;20198;-86
2023/01/12 01:27:47;;;;;;;28.03;8.47;;;;;;;;;;5111712;28;20226;-86
2023/01/12 01:30:17;;;;;;;7.33;3.77;;;;;;;;;;5111399;28;20237;-86
2023/01/12 01:32:45;;;;;;;13.30;3.87;;;;;;;;;;5110352;28;20210;-86
2023/01/12 01:35:13;;;;;;;36.37;7.53;;;;;;;;;;5144867;27;20238;-86
2023/01/12 01:37:42;;;;;;;31.30;8.43;;;;;;;;;;5110544;28;20263;-86
2023/01/12 01:40:11;;;;;;;18.03;3.83;;;;;;;;;;5109866;28;20207;-86
2023/01/12 01:42:40;;;;;;;23.03;6.37;;;;;;;;;;5111560;28;20201;-86
2023/01/12 01:45:11;;;;;;;13.27;3.27;;;;;;;;;;5111104;28;20190;-86
2023/01/12 01:47:43;;;;;;;48.10;14.70;;;;;;;;;;5110244;28;20201;-86
2023/01/12 01:50:15;;;;;;;25.53;5.10;;;;;;;;;;5109990;28;20226;-86
2023/01/12 01:52:45;;;;;;;7.10;3.30;;;;;;;;;;5111024;28;20273;-85
2023/01/12 01:55:14;;;;;;;28.20;10.97;;;;;;;;;;5109887;28;20251;-86
2023/01/12 01:57:44;;;;;;;36.07;9.97;;;;;;;;;;5110214;28;20209;-86
2023/01/12 02:00:12;;;;;;;26.53;5.33;;;;;;;;;;5109827;28;20209;-86
2023/01/12 02:02:44;;;;;;;38.27;9.57;;;;;;;;;;5110824;28;20193;-85
2023/01/12 02:05:14;;;;;;;30.10;9.43;;;;;;;;;;5110106;28;20221;-86
2023/01/12 02:07:43;;;;;;;41.17;9.00;;;;;;;;;;5109736;28;20202;-86
2023/01/12 02:10:11;;;;;;;27.77;6.83;;;;;;;;;;5110007;28;20194;-86
2023/01/12 02:18:18;;;;;;;34.10;10.47;;;;;;;;;;5109839;28;20250;-86
2023/01/12 02:20:58;;;;;;;26.97;8.80;;;;;;;;;;5109669;28;20214;-85
2023/01/12 02:23:44;;;;;;;21.43;5.87;;;;;;;;;;5101396;28;20198;-86
2023/01/12 02:26:28;;;;;;;33.90;9.23;;;;;;;;;;5097050;28;20233;-86
2023/01/12 02:29:19;;;;;;;43.10;13.30;;;;;;;;;;5096775;28;20198;-86
2023/01/12 02:31:55;;;;;;;41.93;13.53;;;;;;;;;;5096010;28;20199;-86
2023/01/12 02:34:28;;;;;;;32.87;7.50;;;;;;;;;;5095591;28;20206;-86
2023/01/12 02:36:59;;;;;;;28.17;6.47;;;;;;;;;;5096202;28;20198;-86
2023/01/12 02:39:30;;;;;;;30.87;8.30;;;;;;;;;;5096790;28;20226;-86
2023/01/12 02:44:52;;;;;;;24.27;5.83;;;;;;;;;;5095766;28;20203;-86
2023/01/12 02:47:25;;;;;;;17.43;6.10;;;;;;;;;;5096485;28;20202;-86
2023/01/12 02:49:56;;;;;;;37.73;10.40;;;;;;;;;;5095191;28;20226;-86
2023/01/12 02:52:26;;;;;;;15.73;5.23;;;;;;;;;;5096294;28;20227;-86
2023/01/12 02:54:55;;;;;;;18.83;5.43;;;;;;;;;;5095491;28;20233;-86
2023/01/12 02:57:25;;;;;;;22.77;9.87;;;;;;;;;;5096476;28;20227;-86
2023/01/12 02:59:54;;;;;;;18.67;4.80;;;;;;;;;;5095235;28;20196;-86
2023/01/12 03:02:26;;;;;;;30.83;7.07;;;;;;;;;;5095297;28;20234;-86
2023/01/12 03:04:55;;;;;;;36.73;9.50;;;;;;;;;;5096470;28;20190;-86
2023/01/12 03:07:33;;;;;;;32.97;7.60;;;;;;;;;;5096402;28;20222;-86
2023/01/12 03:10:07;;;;;;;17.47;5.33;;;;;;;;;;5094927;28;20251;-85
2023/01/12 03:12:37;;;;;;;22.20;8.13;;;;;;;;;;5096173;28;20269;-85
2023/01/12 03:15:08;;;;;;;21.43;6.43;;;;;;;;;;5094798;28;20255;-86
2023/01/12 03:17:39;;;;;;;14.73;7.93;;;;;;;;;;5095242;28;20204;-86
2023/01/12 03:20:11;;;;;;;26.83;7.23;;;;;;;;;;5095226;28;20290;-86
2023/01/12 03:22:39;;;;;;;33.53;10.93;;;;;;;;;;5096261;28;20252;-86
2023/01/12 03:25:12;;;;;;;20.00;7.83;;;;;;;;;;5095136;28;20227;-86
2023/01/12 03:27:42;;;;;;;26.43;7.30;;;;;;;;;;5094750;28;20225;-86
2023/01/12 03:30:13;;;;;;;38.07;14.50;;;;;;;;;;5094563;28;20206;-86
2023/01/12 03:32:43;;;;;;;26.43;7.57;;;;;;;;;;5094762;28;20214;-86
2023/01/12 03:35:12;;;;;;;28.67;11.30;;;;;;;;;;5093676;28;20237;-86
2023/01/12 03:37:45;;;;;;;31.27;10.60;;;;;;;;;;5095786;28;20190;-86
2023/01/12 03:40:15;;;;;;;25.27;10.63;;;;;;;;;;5094802;28;20202;-86
2023/01/12 03:42:47;;;;;;;19.50;6.20;;;;;;;;;;5094264;28;20193;-86
2023/01/12 03:45:22;;;;;;;15.40;5.93;;;;;;;;;;5094343;28;20210;-86
2023/01/12 03:47:56;;;;;;;14.80;4.93;;;;;;;;;;5094237;28;20206;-86
2023/01/12 03:50:26;;;;;;;16.10;7.50;;;;;;;;;;5094408;28;20191;-86
2023/01/12 03:52:55;;;;;;;18.17;7.00;;;;;;;;;;5094215;28;20233;-86
2023/01/12 03:55:25;;;;;;;13.83;6.53;;;;;;;;;;5095426;28;20210;-86
2023/01/12 03:57:54;;;;;;;12.90;3.13;;;;;;;;;;5095715;28;20208;-86
2023/01/12 04:00:23;;;;;;;6.67;3.10;;;;;;;;;;5094582;28;20237;-85
2023/01/12 04:03:02;;;;;;;12.97;6.17;;;;;;;;;;5094232;28;20238;-86
2023/01/12 04:05:31;;;;;;;10.87;3.80;;;;;;;;;;5094916;28;20224;-86
2023/01/12 04:07:59;;;;;;;8.77;2.90;;;;;;;;;;5095065;28;20204;-85
2023/01/12 04:10:28;;;;;;;7.83;3.40;;;;;;;;;;5093871;28;20203;-86
2023/01/12 04:12:56;;;;;;;5.90;3.40;;;;;;;;;;5094272;28;20253;-86
2023/01/12 04:15:25;;;;;;;5.93;2.40;;;;;;;;;;5093870;28;20196;-85
2023/01/12 04:17:54;;;;;;;4.20;1.60;;;;;;;;;;5094230;28;20197;-85
2023/01/12 04:20:23;;;;;;;2.30;1.70;;;;;;;;;;5093714;28;20234;-86
2023/01/12 04:22:50;;;;;;;6.27;2.13;;;;;;;;;;5093966;28;20219;-87
2023/01/12 04:25:20;;;;;;;4.30;1.60;;;;;;;;;;5093876;28;20207;-86
2023/01/12 04:27:49;;;;;;;1.60;1.50;;;;;;;;;;5093886;28;20206;-87
2023/01/12 04:30:19;;;;;;;8.20;3.10;;;;;;;;;;5093629;28;20235;-87
2023/01/12 04:32:47;;;;;;;9.37;2.53;;;;;;;;;;5094905;28;20219;-87
2023/01/12 04:35:17;;;;;;;3.70;1.97;;;;;;;;;;5093425;28;20206;-87
2023/01/12 04:37:46;;;;;;;7.23;3.37;;;;;;;;;;5094597;28;20240;-87
2023/01/12 04:40:15;;;;;;;5.67;2.50;;;;;;;;;;5093959;28;20228;-86
2023/01/12 04:43:00;;;;;;;11.00;3.80;;;;;;;;;;5093523;28;20202;-87
2023/01/12 04:45:28;;;;;;;11.97;4.47;;;;;;;;;;5094549;28;20201;-86
2023/01/12 04:48:01;;;;;;;6.73;2.00;;;;;;;;;;5093590;28;20293;-87
2023/01/12 04:50:31;;;;;;;6.13;2.67;;;;;;;;;;5093841;28;20227;-86
2023/01/12 04:53:02;;;;;;;9.70;3.73;;;;;;;;;;5094496;28;20216;-87
2023/01/12 04:55:30;;;;;;;11.20;4.87;;;;;;;;;;5093291;28;20194;-86
2023/01/12 04:57:58;;;;;;;9.57;4.07;;;;;;;;;;5093797;28;20193;-87
2023/01/12 05:00:27;;;;;;;6.77;2.73;;;;;;;;;;5093478;28;20198;-87
2023/01/12 05:02:58;;;;;;;10.00;3.27;;;;;;;;;;5094610;28;20262;-87
2023/01/12 05:05:26;;;;;;;15.20;4.50;;;;;;;;;;5093620;28;20226;-87
2023/01/12 05:10:41;;;;;;;18.73;5.33;;;;;;;;;;5092918;28;20219;-87
2023/01/12 05:13:10;;;;;;;12.30;4.60;;;;;;;;;;5093162;28;20226;-87
2023/01/12 05:15:38;;;;;;;14.87;3.87;;;;;;;;;;5094638;28;20241;-87
2023/01/12 05:18:06;;;;;;;23.20;6.47;;;;;;;;;;5093225;28;20229;-88
2023/01/12 05:20:35;;;;;;;23.83;5.93;;;;;;;;;;5094365;28;20228;-88
2023/01/12 05:23:05;;;;;;;17.20;5.47;;;;;;;;;;5093327;28;20225;-87
2023/01/12 05:25:33;;;;;;;14.83;3.77;;;;;;;;;;5093271;28;20198;-87
2023/01/12 05:28:02;;;;;;;33.00;8.57;;;;;;;;;;5093298;28;20250;-87
2023/01/12 05:30:30;;;;;;;15.23;4.47;;;;;;;;;;5093638;28;20190;-87
2023/01/12 05:32:59;;;;;;;27.10;6.27;;;;;;;;;;5094463;28;20218;-88
2023/01/12 05:35:28;;;;;;;15.50;4.37;;;;;;;;;;5093622;28;20198;-88
2023/01/12 05:37:56;;;;;;;43.80;6.33;;;;;;;;;;5093009;28;20201;-88
2023/01/12 05:40:26;;;;;;;20.23;6.03;;;;;;;;;;5093275;28;20256;-88
2023/01/12 05:45:40;;;;;;;17.57;5.13;;;;;;;;;;5094584;28;20203;-88
2023/01/12 05:48:10;;;;;;;24.13;6.40;;;;;;;;;;5096392;28;20204;-87
2023/01/12 05:50:38;;;;;;;35.40;7.10;;;;;;;;;;5098556;28;20201;-87
2023/01/12 05:53:06;;;;;;;25.33;7.90;;;;;;;;;;5096996;28;20209;-87
2023/01/12 05:55:36;;;;;;;20.33;6.67;;;;;;;;;;5097574;28;20249;-86
2023/01/12 05:58:05;;;;;;;24.90;6.73;;;;;;;;;;5098260;28;20219;-87
2023/01/12 06:00:33;;;;;;;23.17;6.97;;;;;;;;;;5100665;28;20210;-87
2023/01/12 06:03:02;;;;;;;27.90;7.10;;;;;;;;;;5100307;28;20210;-87
2023/01/12 06:05:30;;;;;;;22.87;6.07;;;;;;;;;;5101507;28;20235;-86
2023/01/12 06:08:01;;;;;;;40.63;7.80;;;;;;;;;;5100733;28;20245;-87
2023/01/12 06:10:31;;;;;;;18.90;7.20;;;;;;;;;;5103567;28;20264;-86
2023/01/12 06:15:47;;;;;;;22.20;7.97;;;;;;;;;;5101191;28;20223;-87
2023/01/12 06:18:17;;;;;;;15.13;5.33;;;;;;;;;;5099636;28;20199;-87
2023/01/12 06:20:45;;;;;;;26.23;6.57;;;;;;;;;;5100728;28;20189;-86
2023/01/12 06:23:14;;;;;;;19.83;6.93;;;;;;;;;;5100074;28;20200;-87
2023/01/12 06:25:43;;;;;;;23.80;5.60;;;;;;;;;;5099646;28;20294;-87
2023/01/12 06:28:13;;;;;;;35.53;8.30;;;;;;;;;;5099284;28;20205;-87
2023/01/12 06:30:42;;;;;;;30.70;9.23;;;;;;;;;;5099359;28;20199;-87
2023/01/12 06:33:10;;;;;;;28.50;7.93;;;;;;;;;;5099983;28;20194;-87
2023/01/12 06:35:39;;;;;;;25.17;7.17;;;;;;;;;;5099271;28;20248;-87
2023/01/12 06:38:07;;;;;;;28.03;7.53;;;;;;;;;;5098697;28;20208;-87
2023/01/12 06:40:35;;;;;;;23.57;6.60;;;;;;;;;;5099998;28;20190;-87
2023/01/12 06:43:04;;;;;;;17.23;4.63;;;;;;;;;;5099655;28;20241;-86
2023/01/12 06:45:33;;;;;;;25.73;7.00;;;;;;;;;;5098329;28;20223;-87
2023/01/12 06:48:02;;;;;;;11.23;3.83;;;;;;;;;;5097704;28;20203;-86
2023/01/12 06:50:31;;;;;;;15.97;6.60;;;;;;;;;;5098001;28;20228;-86
2023/01/12 06:52:59;;;;;;;24.27;6.83;;;;;;;;;;5098645;28;20231;-86
2023/01/12 06:55:28;;;;;;;19.43;5.80;;;;;;;;;;5097342;28;20285;-87
2023/01/12 06:57:56;;;;;;;15.93;5.70;;;;;;;;;;5096608;28;20257;-87
2023/01/12 07:00:24;;;;;;;36.20;8.97;;;;;;;;;;5095053;28;20237;-87
2023/01/12 07:02:54;;;;;;;30.33;7.40;;;;;;;;;;5095305;28;20281;-87
2023/01/12 07:05:23;;;;;;;25.57;6.77;;;;;;;;;;5095046;28;20288;-87
2023/01/12 07:07:57;;;;;;;19.70;6.30;;;;;;;;;;5095320;28;20203;-87
2023/01/12 07:10:25;;;;;;;25.60;8.17;;;;;;;;;;5094601;28;20188;-87
2023/01/12 07:12:54;;;;;;;29.40;7.03;;;;;;;;;;5094899;28;20235;-87
2023/01/12 07:15:22;;;;;;;26.83;7.33;;;;;;;;;;5094883;28;20218;-87
2023/01/12 07:17:56;;;;;;;11.77;4.50;;;;;;;;;;5095317;28;20249;-87
2023/01/12 07:20:27;;;;;;;20.27;5.30;;;;;;;;;;5095097;28;20257;-87
2023/01/12 07:22:55;;;;;;;30.63;5.37;;;;;;;;;;5095727;28;20192;-87
2023/01/12 07:25:24;;;;;;;19.67;5.60;;;;;;;;;;5094792;28;20195;-87
2023/01/12 07:27:53;;;;;;;19.70;7.13;;;;;;;;;;5094346;28;20200;-87
2023/01/12 07:30:22;;;;;;;26.50;7.77;;;;;;;;;;5094531;28;20207;-87
2023/01/12 07:32:50;;;;;;;13.57;3.67;;;;;;;;;;5094563;28;20196;-86
2023/01/12 07:35:20;;;;;;;9.77;3.63;;;;;;;;;;5094975;28;20274;-87
2023/01/12 07:37:49;;;;;;;27.33;8.80;;;;;;;;;;5094675;28;20212;-87
2023/01/12 07:40:17;;;;;;;20.30;7.43;;;;;;;;;;5094401;28;20193;-87
2023/01/12 07:42:46;;;;;;;21.50;6.90;;;;;;;;;;5094076;28;20204;-87
2023/01/12 07:45:14;;;;;;;20.77;5.50;;;;;;;;;;5094502;28;20193;-86
2023/01/12 07:47:42;;;;;;;10.00;4.60;;;;;;;;;;5094512;28;20204;-87
2023/01/12 07:50:11;;;;;;;18.43;4.77;;;;;;;;;;5095867;28;20201;-87
2023/01/12 07:52:41;;;;;;;29.43;7.07;;;;;;;;;;5094309;28;20193;-84
2023/01/12 07:55:12;;;;;;;16.17;4.63;;;;;;;;;;5095237;28;20303;-86
2023/01/12 07:57:40;;;;;;;11.40;4.23;;;;;;;;;;5094188;28;20201;-86
2023/01/12 08:00:09;;;;;;;13.70;5.63;;;;;;;;;;5094214;28;20208;-86
2023/01/12 08:02:38;;;;;;;11.73;4.67;;;;;;;;;;5094095;28;20204;-86
2023/01/12 08:05:06;;;;;;;17.77;6.50;;;;;;;;;;5095148;28;20216;-87
2023/01/12 08:07:35;;;;;;;17.50;6.17;;;;;;;;;;5093781;28;20225;-87
2023/01/12 08:10:05;;;;;;;18.07;6.50;;;;;;;;;;5093580;28;20211;-86
2023/01/12 08:12:34;;;;;;;15.90;4.37;;;;;;;;;;5093717;28;20235;-86
2023/01/12 08:15:03;;;;;;;21.13;4.83;;;;;;;;;;5093325;28;20215;-87
2023/01/12 08:17:33;;;;;;;19.27;5.77;;;;;;;;;;5094152;28;20228;-86
2023/01/12 08:20:03;;;;;;;17.37;4.30;;;;;;;;;;5094697;28;20201;-87
2023/01/12 08:22:36;;;;;;;14.73;4.50;;;;;;;;;;5086180;28;20190;-86
2023/01/12 08:25:07;;;;;;;16.63;4.77;;;;;;;;;;5072344;28;20197;-86
2023/01/12 08:27:38;;;;;;;14.87;4.40;;;;;;;;;;5073648;28;20253;-87
2023/01/12 08:30:08;;;;;;;18.63;3.53;;;;;;;;;;5080594;28;20201;-86
2023/01/12 08:32:38;;;;;;;14.17;5.60;;;;;;;;;;5082262;28;20240;-87
2023/01/12 08:35:06;;;;;;;15.33;4.83;;;;;;;;;;5073227;28;20246;-87
2023/01/12 08:37:35;;;;;;;8.57;4.03;;;;;;;;;;5073943;28;20198;-87
2023/01/12 08:40:04;;;;;;;8.67;4.07;;;;;;;;;;5072756;28;20202;-87
2023/01/12 08:42:34;;;;;;;15.57;4.87;;;;;;;;;;5072964;28;20197;-87
2023/01/12 08:45:02;;;;;;;23.33;5.73;;;;;;;;;;5073661;28;20205;-85
2023/01/12 08:47:31;;;;;;;18.97;4.40;;;;;;;;;;5090603;28;20231;-86
2023/01/12 08:50:01;;;;;;;17.53;4.53;;;;;;;;;;5089806;28;20243;-86
2023/01/12 08:52:31;;;;;;;13.27;5.20;;;;;;;;;;5076823;28;20228;-86
2023/01/12 08:54:59;;;;;;;14.37;5.20;;;;;;;;;;5085072;28;20220;-86
2023/01/12 08:57:28;;;;;;;25.73;6.00;;;;;;;;;;5078221;28;20215;-85
2023/01/12 08:59:58;;;;;;;28.57;8.00;;;;;;;;;;5080064;28;20197;-86
2023/01/12 09:02:27;;;;;;;16.60;5.40;;;;;;;;;;5079072;28;20193;-86
2023/01/12 09:04:55;;;;;;;14.67;4.20;;;;;;;;;;5079800;28;20200;-85
2023/01/12 09:07:24;;;;;;;28.23;8.33;;;;;;;;;;5076872;28;20217;-88
2023/01/12 09:09:52;;;;;;;22.90;6.57;;;;;;;;;;5076324;28;20196;-85
2023/01/12 09:12:21;;;;;;;9.47;4.20;;;;;;;;;;5080063;28;20267;-85
2023/01/12 09:14:52;;;;;;;32.20;8.63;;;;;;;;;;5081479;28;20223;-86
2023/01/12 09:17:22;;;;;;;20.70;6.50;;;;;;;;;;5082204;28;20202;-86
2023/01/12 09:19:51;;;;;;;14.00;5.33;;;;;;;;;;5091887;28;20211;-85
2023/01/12 09:22:19;;;;;;;11.20;3.73;;;;;;;;;;5083269;28;20295;-85
2023/01/12 09:24:48;;;;;;;31.27;9.00;;;;;;;;;;5089674;28;20214;-86
2023/01/12 09:27:16;;;;;;;20.27;5.60;;;;;;;;;;5079937;28;20197;-86
2023/01/12 09:29:44;;;;;;;12.00;4.00;;;;;;;;;;5088493;28;20224;-86
2023/01/12 09:32:13;;;;;;;12.13;3.63;;;;;;;;;;5085650;28;20235;-86
2023/01/12 09:34:47;;;;;;;21.40;6.77;;;;;;;;;;5082893;28;20201;-84
2023/01/12 09:37:15;;;;;;;15.83;5.13;;;;;;;;;;5077275;28;20185;-85
2023/01/12 09:39:44;;;;;;;22.07;7.93;;;;;;;;;;5083308;28;20231;-85
2023/01/12 09:47:51;;;;;;;19.07;5.90;;;;;;;;;;5081855;28;20205;-85
2023/01/12 09:50:23;;;;;;;11.50;4.93;;;;;;;;;;5078165;28;20204;-85
2023/01/12 09:52:55;;;;;;;13.13;5.67;;;;;;;;;;5079614;28;20288;-85
2023/01/12 09:55:25;;;;;;;22.77;7.23;;;;;;;;;;5081197;28;20221;-84
2023/01/12 09:58:08;;;;;;;19.47;5.13;;;;;;;;;;5087778;28;20200;-85
2023/01/12 10:00:36;;;;;;;19.20;7.60;;;;;;;;;;5082446;28;20208;-85
2023/01/12 10:03:08;;;;;;;18.50;5.77;;;;;;;;;;5084303;28;20205;-85
2023/01/12 10:05:40;;;;;;;25.17;7.57;;;;;;;;;;5081504;28;20212;-85
2023/01/12 10:08:15;;;;;;;21.27;6.07;;;;;;;;;;5084682;28;20192;-84
2023/01/12 10:10:48;;;;;;;15.90;5.80;;;;;;;;;;5081256;28;20203;-85
2023/01/12 10:13:16;;;;;;;20.23;5.73;;;;;;;;;;5081354;28;20247;-85
2023/01/12 10:15:48;;;;;;;16.37;5.70;;;;;;;;;;5081978;28;20260;-85
2023/01/12 10:18:21;;;;;;;15.30;5.77;;;;;;;;;;5099605;28;20201;-85
2023/01/12 10:20:51;;;;;;;22.67;5.80;;;;;;;;;;5078246;28;20303;-84
2023/01/12 10:23:23;;;;;;;10.47;3.80;;;;;;;;;;5082763;28;20198;-85
2023/01/12 10:25:55;;;;;;;23.67;5.97;;;;;;;;;;5083230;28;20213;-85
2023/01/12 10:28:24;;;;;;;18.30;5.87;;;;;;;;;;5078917;28;20279;-85
2023/01/12 10:30:53;;;;;;;18.83;6.67;;;;;;;;;;5080722;28;20201;-84
2023/01/12 10:33:24;;;;;;;19.90;8.20;;;;;;;;;;5085547;28;20197;-85
2023/01/12 10:35:56;;;;;;;17.00;5.43;;;;;;;;;;5086058;28;20212;-84
2023/01/12 10:38:26;;;;;;;20.03;5.93;;;;;;;;;;5079293;28;20205;-85
2023/01/12 10:41:05;;;;;;;27.27;6.23;;;;;;;;;;5077181;28;20256;-85
2023/01/12 10:43:34;;;;;;;28.37;8.87;;;;;;;;;;5076265;28;20213;-84
2023/01/12 10:46:03;;;;;;;26.87;5.53;;;;;;;;;;5075991;28;20286;-84
2023/01/12 10:48:32;;;;;;;17.17;5.60;;;;;;;;;;5085736;28;20213;-84
2023/01/12 10:51:04;;;;;;;10.63;4.63;;;;;;;;;;5082327;28;20205;-84
2023/01/12 10:53:36;;;;;;;22.10;7.03;;;;;;;;;;5088707;28;20200;-84
2023/01/12 10:56:15;;;;;;;20.77;4.93;;;;;;;;;;5080724;28;20212;-85
2023/01/12 10:58:44;;;;;;;9.03;3.17;;;;;;;;;;5077966;28;20213;-85
2023/01/12 11:01:14;;;;;;;13.10;3.57;;;;;;;;;;5081712;28;20203;-84
2023/01/12 11:03:43;;;;;;;18.37;5.23;;;;;;;;;;5077640;28;20205;-85
2023/01/12 11:06:17;;;;;;;15.07;4.73;;;;;;;;;;5080474;28;20213;-85
2023/01/12 11:08:45;;;;;;;10.20;4.17;;;;;;;;;;5080315;28;20246;-85
2023/01/12 11:11:24;;;;;;;20.00;5.20;;;;;;;;;;5078245;28;20193;-85
2023/01/12 11:13:53;;;;;;;18.77;5.27;;;;;;;;;;5091705;28;20211;-86
2023/01/12 11:16:23;;;;;;;15.10;3.57;;;;;;;;;;5090087;28;20212;-86
2023/01/12 11:18:56;;;;;;;17.47;5.87;;;;;;;;;;5092150;28;20274;-87
2023/01/12 11:21:29;;;;;;;29.13;6.90;;;;;;;;;;5079674;28;20204;-87
2023/01/12 11:24:00;;;;;;;9.67;4.83;;;;;;;;;;5078152;28;20205;-85
2023/01/12 11:26:34;;;;;;;17.00;5.83;;;;;;;;;;5079723;28;20186;-86
2023/01/12 11:29:06;;;;;;;17.57;5.33;;;;;;;;;;5094425;28;20477;-88
2023/01/12 11:31:37;;;;;;;19.93;6.07;;;;;;;;;;5083493;28;20198;-86
2023/01/12 11:34:12;;;;;;;15.83;5.37;;;;;;;;;;5079567;28;20194;-87
2023/01/12 11:36:42;;;;;;;19.33;5.23;;;;;;;;;;5080605;28;20291;-85
2023/01/12 11:39:13;;;;;;;22.73;7.23;;;;;;;;;;5081065;28;20217;-87
2023/01/12 11:43:47;;;;;;;14.90;4.20;;;;;;;;;;5086099;28;20198;-87
2023/01/12 11:44:34;;;;;;;17.53;4.40;;;;;;;;;;5084645;28;20260;-87
2023/01/12 11:47:05;;;;;;;24.23;4.87;;;;;;;;;;5083287;28;20262;-88
2023/01/12 11:49:38;;;;;;;26.00;5.83;;;;;;;;;;5073357;28;20289;-87
2023/01/12 11:52:11;;;;;;;10.00;3.57;;;;;;;;;;5080606;28;20251;-87
2023/01/12 11:54:39;;;;;;;30.00;7.37;;;;;;;;;;5079995;28;20201;-87
2023/01/12 11:57:26;;;;;;;13.97;3.83;;;;;;;;;;5079338;28;20205;-87
2023/01/12 12:00:03;;;;;;;15.87;4.93;;;;;;;;;;5078396;28;20336;-87
2023/01/12 12:02:35;;;;;;;32.37;5.57;;;;;;;;;;5082323;28;20265;-85
2023/01/12 12:05:10;;;;;;;24.67;7.80;;;;;;;;;;5082828;28;20199;-86
2023/01/12 12:07:44;;;;;;;14.07;4.83;;;;;;;;;;5083764;28;20205;-86
2023/01/12 12:10:21;;;;;;;14.90;5.03;;;;;;;;;;5084005;28;20209;-86
2023/01/12 12:13:02;;;;;;;19.30;5.87;;;;;;;;;;5078305;28;20233;-86
2023/01/12 12:15:35;;;;;;;17.63;4.87;;;;;;;;;;5081918;28;20297;-86
2023/01/12 12:18:10;;;;;;;23.50;5.67;;;;;;;;;;5082714;28;20215;-87
2023/01/12 12:20:43;;;;;;;4.90;2.97;;;;;;;;;;5095642;28;20212;-86
2023/01/12 12:23:21;;;;;;;15.70;6.17;;;;;;;;;;5079128;28;20208;-87
2023/01/12 12:25:52;;;;;;;12.37;4.50;;;;;;;;;;5089175;28;20197;-87
2023/01/12 12:28:33;;;;;;;15.73;4.27;;;;;;;;;;5077696;28;20207;-87
2023/01/12 12:31:05;;;;;;;17.87;5.07;;;;;;;;;;5076780;28;20201;-87
2023/01/12 12:33:39;;;;;;;12.97;4.87;;;;;;;;;;5078253;28;20227;-86
2023/01/12 12:36:12;;;;;;;18.67;4.77;;;;;;;;;;5079207;28;20196;-86
2023/01/12 12:38:50;;;;;;;13.93;3.93;;;;;;;;;;5073898;28;20314;-86
2023/01/12 12:47:34;;;;;;;30.20;7.80;;;;;;;;;;5080259;28;20212;-86
2023/01/12 12:50:04;;;;;;;16.50;5.83;;;;;;;;;;5075155;28;20201;-86
2023/01/12 12:52:34;;;;;;;17.13;6.00;;;;;;;;;;5078467;28;20200;-85
2023/01/12 12:55:05;;;;;;;23.60;4.97;;;;;;;;;;5079094;28;20212;-86
2023/01/12 12:57:54;;;;;;;12.10;4.10;;;;;;;;;;5076615;28;20236;-85
2023/01/12 13:00:30;;;;;;;16.10;3.93;;;;;;;;;;5082675;28;20222;-84
2023/01/12 13:02:58;;;;;;;14.47;5.73;;;;;;;;;;5088672;28;20212;-85
2023/01/12 13:05:40;;;;;;;23.37;6.50;;;;;;;;;;5081145;28;20235;-86
2023/01/12 13:08:20;;;;;;;14.47;5.07;;;;;;;;;;5073439;28;20196;-86
2023/01/12 13:10:54;;;;;;;14.93;5.80;;;;;;;;;;5072822;28;20215;-85
2023/01/12 13:13:32;;;;;;;14.60;3.77;;;;;;;;;;5072859;28;20243;-85
2023/01/12 13:16:22;;;;;;;10.63;3.13;;;;;;;;;;5072358;28;20204;-86
2023/01/12 13:19:08;;;;;;;13.33;4.47;;;;;;;;;;5071929;28;20239;-85
2023/01/12 13:21:54;;;;;;;16.83;5.60;;;;;;;;;;5073579;28;20197;-85
2023/01/12 13:24:39;;;;;;;12.63;4.30;;;;;;;;;;5072425;28;20198;-85
2023/01/12 13:27:25;;;;;;;29.47;8.37;;;;;;;;;;5072604;28;20204;-85
2023/01/12 13:30:15;;;;;;;24.97;5.73;;;;;;;;;;5060035;28;20208;-86
2023/01/12 13:33:01;;;;;;;21.30;5.10;;;;;;;;;;5073723;28;20205;-86
2023/01/12 13:35:57;;;;;;;16.13;4.10;;;;;;;;;;5070161;28;20201;-85
2023/01/12 13:38:30;;;;;;;23.27;7.33;;;;;;;;;;5072216;28;20228;-85
2023/01/12 13:41:03;;;;;;;21.43;7.27;;;;;;;;;;5072800;28;20217;-85
2023/01/12 13:43:33;;;;;;;29.27;6.50;;;;;;;;;;5073407;28;20204;-85
2023/01/12 13:46:03;;;;;;;14.57;5.47;;;;;;;;;;5073438;28;20224;-86
2023/01/12 13:48:35;;;;;;;18.67;4.93;;;;;;;;;;5072463;28;20207;-86
2023/01/12 13:51:08;;;;;;;30.00;6.43;;;;;;;;;;5073119;28;20221;-85
2023/01/12 13:53:36;;;;;;;19.33;5.13;;;;;;;;;;5072566;28;20229;-85
2023/01/12 13:56:06;;;;;;;14.20;6.00;;;;;;;;;;5072450;28;20208;-85
2023/01/12 13:58:39;;;;;;;13.53;4.23;;;;;;;;;;5072285;28;20221;-85
2023/01/12 14:01:15;;;;;;;27.80;6.50;;;;;;;;;;5073540;28;20192;-86
2023/01/12 14:03:56;;;;;;;10.70;3.20;;;;;;;;;;5072425;28;20257;-85
2023/01/12 14:06:31;;;;;;;13.23;4.73;;;;;;;;;;5073309;28;20275;-85
2023/01/12 14:09:08;;;;;;;11.77;3.63;;;;;;;;;;5073179;28;20253;-85
2023/01/12 14:11:45;;;;;;;13.50;5.73;;;;;;;;;;5072355;28;20243;-85
2023/01/12 14:20:00;;;;;;;11.03;3.90;;;;;;;;;;5075857;28;20205;-85
2023/01/12 14:22:30;;;;;;;18.57;4.20;;;;;;;;;;5076841;28;20251;-85
2023/01/12 14:25:12;;;;;;;16.20;5.87;;;;;;;;;;5075733;28;20231;-85
2023/01/12 14:27:48;;;;;;;20.13;3.73;;;;;;;;;;5076678;28;20227;-86
2023/01/12 14:30:17;;;;;;;15.93;5.73;;;;;;;;;;5076954;28;20291;-85
2023/01/12 14:32:45;;;;;;;14.47;4.03;;;;;;;;;;5075540;28;20200;-86
2023/01/12 14:35:15;;;;;;;14.87;3.23;;;;;;;;;;5076450;28;20212;-86
2023/01/12 14:37:48;;;;;;;11.77;4.60;;;;;;;;;;5076650;28;20192;-86
2023/01/12 14:40:24;;;;;;;14.67;4.27;;;;;;;;;;5075333;28;20254;-86
2023/01/12 14:48:28;;;;;;;19.07;5.17;;;;;;;;;;5076274;28;20301;-86
2023/01/12 14:51:01;;;;;;;12.07;2.87;;;;;;;;;;5075277;28;20211;-86
2023/01/12 14:53:33;;;;;;;18.87;3.13;;;;;;;;;;5075404;28;20302;-85
2023/01/12 14:56:10;;;;;;;9.80;3.50;;;;;;;;;;5075024;28;20202;-86
2023/01/12 14:58:38;;;;;;;10.07;3.13;;;;;;;;;;5075333;28;20262;-86
2023/01/12 15:01:07;;;;;;;12.30;5.23;;;;;;;;;;5076021;28;20251;-86
2023/01/12 15:03:35;;;;;;;10.17;4.70;;;;;;;;;;5075974;28;20211;-86
2023/01/12 15:06:14;;;;;;;8.50;2.80;;;;;;;;;;5074918;28;20225;-86
2023/01/12 15:08:54;;;;;;;7.50;3.47;;;;;;;;;;5075307;28;20203;-86
2023/01/12 15:11:29;;;;;;;18.20;4.20;;;;;;;;;;5074912;28;20212;-86
2023/01/12 15:13:58;;;;;;;8.23;3.87;;;;;;;;;;5074620;28;20238;-85
2023/01/12 15:27:51;;;;;;;15.87;3.53;;;;;;;;;;4997247;28;20204;-86
2023/01/12 15:30:19;;;;;;;9.93;3.83;;;;;;;;;;5013757;28;20294;-85
2023/01/12 15:32:48;;;;;;;15.80;5.27;;;;;;;;;;5030668;28;20209;-86
2023/01/12 15:35:19;;;;;;;5.60;3.00;;;;;;;;;;5074180;28;20226;-86
2023/01/12 15:37:48;;;;;;;5.50;2.40;;;;;;;;;;5074091;28;20215;-86
2023/01/12 15:40:18;;;;;;;10.57;5.17;;;;;;;;;;5074311;28;20275;-87
2023/01/12 15:42:47;;;;;;;12.13;3.97;;;;;;;;;;5074066;28;20204;-87
2023/01/12 15:45:18;;;;;;;15.27;2.40;;;;;;;;;;5074447;28;20235;-87
2023/01/12 15:47:47;;;;;;;7.23;3.17;;;;;;;;;;5075074;28;20204;-87
2023/01/12 15:50:16;;;;;;;24.60;3.77;;;;;;;;;;5075256;28;20290;-86
2023/01/12 15:52:44;;;;;;;13.17;4.17;;;;;;;;;;5074902;28;20204;-86